createdAt,value
2023-06-07T00:02:06.163Z,96566.59
2023-06-07T00:04:37.200Z,96567.55
2023-06-07T00:07:27.180Z,96564.14
2023-06-07T00:10:04.987Z,96562.69
2023-06-07T00:12:35.694Z,96562.91
2023-06-07T00:15:09.069Z,96563.95
2023-06-07T00:18:01.648Z,96564.44
2023-06-07T00:20:35.524Z,96565.92
2023-06-07T00:23:09.586Z,96567.20
2023-06-07T00:25:39.404Z,96565.69
2023-06-07T00:28:10.318Z,96564.01
2023-06-07T00:30:41.686Z,96564.84
2023-06-07T00:33:12.722Z,96567.18
2023-06-07T00:35:45.807Z,96561.84
2023-06-07T00:38:21.117Z,96557.43
2023-06-07T00:40:58.606Z,96556.30
2023-06-07T00:44:00.926Z,96557.23
2023-06-07T00:46:57.576Z,96553.66
2023-06-07T00:49:29.560Z,96554.95
2023-06-07T00:52:01.170Z,96553.28
2023-06-07T00:54:32.069Z,96552.98
2023-06-07T00:57:07.284Z,96547.55
2023-06-07T00:59:42.654Z,96551.34
2023-06-07T01:02:45.933Z,96551.27
2023-06-07T01:06:12.789Z,96554.59
2023-06-07T01:09:43.960Z,96550.48
2023-06-07T01:13:04.773Z,96547.52
2023-06-07T01:16:37.938Z,96542.90
2023-06-07T01:19:51.840Z,96540.15
2023-06-07T01:23:27.900Z,96538.84
2023-06-07T01:26:52.882Z,96537.60
2023-06-07T01:30:16.866Z,96533.84
2023-06-07T01:33:46.860Z,96529.59
2023-06-07T01:37:19.272Z,96522.75
2023-06-07T01:40:54.829Z,96517.55
2023-06-07T01:44:21.809Z,96518.46
2023-06-07T01:47:47.902Z,96518.84
2023-06-07T01:51:13.858Z,96521.06
2023-06-07T01:54:40.834Z,96520.04
2023-06-07T01:58:12.859Z,96512.89
2023-06-07T02:01:41.982Z,96512.09
2023-06-07T02:05:01.865Z,96510.83
2023-06-07T02:08:16.397Z,96513.46
2023-06-07T02:11:42.797Z,96512.23
2023-06-07T02:15:14.852Z,96512.06
2023-06-07T02:18:47.843Z,96512.12
2023-06-07T02:22:11.880Z,96516.81
2023-06-07T02:25:50.820Z,96519.58
2023-06-07T02:29:11.841Z,96520.76
2023-06-07T02:32:38.928Z,96518.30
2023-06-07T02:36:18.917Z,96518.73
2023-06-07T02:39:44.812Z,96520.89
2023-06-07T02:43:16.844Z,96524.17
2023-06-07T02:46:51.266Z,96524.92
2023-06-07T02:50:42.414Z,96524.69
2023-06-07T02:54:35.918Z,96527.41
2023-06-07T02:58:00.820Z,96531.39
2023-06-07T03:01:20.092Z,96532.34
2023-06-07T03:04:57.881Z,96529.96
2023-06-07T03:08:55.761Z,96529.23
2023-06-07T03:12:38.950Z,96529.29
2023-06-07T03:16:14.839Z,96527.85
2023-06-07T03:19:38.857Z,96528.16
2023-06-07T03:23:08.891Z,96524.29
2023-06-07T03:26:32.807Z,96526.96
2023-06-07T03:30:06.069Z,96528.27
2023-06-07T03:33:32.977Z,96531.55
2023-06-07T03:36:50.922Z,96529.99
2023-06-07T03:40:20.942Z,96534.45
2023-06-07T03:44:00.864Z,96536.23
2023-06-07T03:47:50.214Z,96533.20
2023-06-07T03:51:07.873Z,96535.05
2023-06-07T03:57:40.914Z,96531.94
2023-06-07T04:01:09.901Z,96537.20
2023-06-07T04:04:27.930Z,96539.83
2023-06-07T04:08:03.892Z,96537.16
2023-06-07T04:11:07.862Z,96536.11
2023-06-07T04:14:26.253Z,96542.59
2023-06-07T04:17:15.325Z,96545.45
2023-06-07T04:20:13.925Z,96541.33
2023-06-07T04:23:50.227Z,96546.33
2023-06-07T04:27:12.328Z,96542.25
2023-06-07T04:30:50.026Z,96543.84
2023-06-07T04:34:00.480Z,96541.33
2023-06-07T04:37:16.488Z,96541.25
2023-06-07T04:40:41.909Z,96540.47
2023-06-07T04:44:14.397Z,96538.51
2023-06-07T04:47:29.806Z,96539.52
2023-06-07T04:50:57.204Z,96542.24
2023-06-07T04:54:19.888Z,96545.20
2023-06-07T04:58:17.650Z,96551.14
2023-06-07T05:05:12.125Z,96558.46
2023-06-07T05:08:42.709Z,96562.98
2023-06-07T05:12:35.176Z,96564.08
2023-06-07T05:15:59.067Z,96561.47
2023-06-07T05:19:19.866Z,96555.73
2023-06-07T05:22:33.822Z,96554.27
2023-06-07T05:26:09.968Z,96555.80
2023-06-07T05:29:39.889Z,96557.59
2023-06-07T05:40:36.376Z,96555.70
2023-06-07T05:43:05.202Z,96555.12
2023-06-07T05:45:33.311Z,96554.33
2023-06-07T05:48:01.243Z,96552.79
2023-06-07T05:50:30.191Z,96550.64
2023-06-07T05:52:58.690Z,96547.12
2023-06-07T05:55:28.491Z,96547.66
2023-06-07T05:58:01.596Z,96552.24
2023-06-07T06:00:29.960Z,96548.84
2023-06-07T06:03:00.320Z,96550.24
2023-06-07T06:05:29.718Z,96550.89
2023-06-07T06:07:59.682Z,96553.92
2023-06-07T06:10:27.718Z,96555.82
2023-06-07T06:12:56.989Z,96553.24
2023-06-07T06:15:25.285Z,96549.53
2023-06-07T06:17:55.930Z,96548.85
2023-06-07T06:20:24.039Z,96547.17
2023-06-07T06:22:52.015Z,96548.80
2023-06-07T06:25:25.712Z,96545.61
2023-06-07T06:27:55.479Z,96547.70
2023-06-07T06:30:24.675Z,96541.31
2023-06-07T06:32:54.229Z,96537.93
2023-06-07T06:35:22.712Z,96537.38
2023-06-07T06:37:50.953Z,96537.54
2023-06-07T06:40:22.858Z,96533.61
2023-06-07T06:42:51.921Z,96533.59
2023-06-07T06:45:29.804Z,96532.83
2023-06-07T06:48:00.120Z,96534.46
2023-06-07T06:50:33.383Z,96533.04
2023-06-07T06:53:04.074Z,96536.02
2023-06-07T06:55:35.021Z,96539.59
2023-06-07T06:58:03.085Z,96538.40
2023-06-07T07:00:34.441Z,96540.03
2023-06-07T07:03:20.917Z,96538.11
2023-06-07T07:06:33.334Z,96536.95
2023-06-07T07:09:01.537Z,96542.39
2023-06-07T07:14:37.954Z,96542.16
2023-06-07T07:17:06.531Z,96545.95
2023-06-07T07:19:34.721Z,96542.98
2023-06-07T07:22:04.603Z,96543.13
2023-06-07T07:24:34.897Z,96541.54
2023-06-07T07:27:04.097Z,96542.56
2023-06-07T07:29:33.484Z,96540.11
2023-06-07T07:32:34.267Z,96539.77
2023-06-07T07:35:06.023Z,96544.53
2023-06-07T07:37:34.041Z,96543.80
2023-06-07T07:40:03.203Z,96539.55
2023-06-07T07:42:31.387Z,96539.65
2023-06-07T07:44:59.617Z,96545.96
2023-06-07T07:47:27.595Z,96545.60
2023-06-07T07:49:57.474Z,96546.73
2023-06-07T07:52:26.817Z,96549.36
2023-06-07T07:54:56.591Z,96549.72
2023-06-07T07:57:25.439Z,96545.92
2023-06-07T07:59:53.827Z,96545.59
2023-06-07T08:02:44.792Z,96541.66
2023-06-07T08:05:13.067Z,96535.42
2023-06-07T08:07:49.444Z,96534.06
2023-06-07T08:10:19.880Z,96536.11
2023-06-07T08:12:51.134Z,96535.02
2023-06-07T08:15:25.889Z,96534.76
2023-06-07T08:19:06.559Z,96531.92
2023-06-07T08:21:32.238Z,96531.67
2023-06-07T08:24:16.224Z,96538.45
2023-06-07T08:26:53.381Z,96540.86
2023-06-07T08:29:23.098Z,96537.17
2023-06-07T08:31:55.092Z,96541.52
2023-06-07T08:34:36.694Z,96541.95
2023-06-07T08:37:07.700Z,96541.80
2023-06-07T08:39:42.110Z,96539.11
2023-06-07T08:42:11.064Z,96535.50
2023-06-07T08:44:44.080Z,96532.66
2023-06-07T08:47:24.719Z,96534.00
2023-06-07T08:50:05.812Z,96533.35
2023-06-07T08:52:54.065Z,96528.15
2023-06-07T08:55:27.710Z,96525.70
2023-06-07T08:57:56.652Z,96531.08
2023-06-07T09:00:29.694Z,96534.59
2023-06-07T09:03:16.885Z,96535.15
2023-06-07T09:05:48.618Z,96534.91
2023-06-07T09:08:16.795Z,96538.23
2023-06-07T09:10:51.485Z,96539.02
2023-06-07T09:13:22.505Z,96536.61
2023-06-07T09:16:02.575Z,96535.05
2023-06-07T09:21:59.312Z,96536.03
2023-06-07T09:24:38.145Z,96529.95
2023-06-07T09:27:07.031Z,96527.05
2023-06-07T09:29:49.759Z,96530.88
2023-06-07T09:32:25.652Z,96531.17
2023-06-07T09:35:19.539Z,96531.09
2023-06-07T09:37:52.576Z,96532.88
2023-06-07T09:40:26.420Z,96532.37
2023-06-07T09:43:10.405Z,96529.51
2023-06-07T09:46:13.331Z,96525.90
2023-06-07T09:49:06.916Z,96524.75
2023-06-07T09:51:49.703Z,96522.90
2023-06-07T09:54:20.351Z,96522.20
2023-06-07T09:56:54.934Z,96517.13
2023-06-07T09:59:28.094Z,96516.63
2023-06-07T10:01:56.541Z,96511.59
2023-06-07T10:04:32.423Z,96511.02
2023-06-07T10:07:03.543Z,96507.27
2023-06-07T10:09:34.316Z,96502.67
2023-06-07T10:12:04.175Z,96504.88
2023-06-07T10:14:37.892Z,96504.48
2023-06-07T10:17:20.354Z,96504.64
2023-06-07T10:20:20.031Z,96504.59
2023-06-07T10:22:49.465Z,96500.11
2023-06-07T10:25:43.092Z,96504.36
2023-06-07T10:28:23.442Z,96502.67
2023-06-07T10:31:07.048Z,96505.17
2023-06-07T10:33:43.998Z,96501.59
2023-06-07T10:36:13.269Z,96495.67
2023-06-07T10:38:42.478Z,96496.70
2023-06-07T10:41:14.031Z,96493.80
2023-06-07T10:43:48.027Z,96492.28
2023-06-07T10:46:28.181Z,96488.51
2023-06-07T10:48:58.119Z,96487.58
2023-06-07T10:52:01.551Z,96485.46
2023-06-07T10:54:34.495Z,96485.48
2023-06-07T10:57:04.572Z,96484.41
2023-06-07T10:59:37.683Z,96483.20
2023-06-07T11:02:24.914Z,96485.15
2023-06-07T11:04:58.748Z,96479.22
2023-06-07T11:07:35.938Z,96476.42
2023-06-07T11:10:42.270Z,96472.36
2023-06-07T11:13:20.952Z,96471.09
2023-06-07T11:15:49.217Z,96465.54
2023-06-07T11:18:20.763Z,96460.99
2023-06-07T11:20:52.296Z,96459.58
2023-06-07T11:23:24.878Z,96463.86
2023-06-07T11:26:13.265Z,96464.02
2023-06-07T12:21:47.446Z,96463.73
2023-06-07T14:25:16.781Z,96460.20
2023-06-07T14:42:45.712Z,96433.63
2023-06-07T14:46:01.186Z,96429.63
2023-06-07T14:53:09.078Z,96434.56
2023-06-07T14:56:34.304Z,96435.94
2023-06-07T15:00:14.619Z,96431.54
2023-06-07T15:03:40.754Z,96431.45
2023-06-07T15:07:04.330Z,96424.27
2023-06-07T15:10:37.628Z,96415.70
2023-06-07T15:13:43.628Z,96414.89
2023-06-07T15:16:51.642Z,96414.45
2023-06-07T15:20:04.812Z,96411.33
2023-06-07T15:23:57.116Z,96412.39
2023-06-07T15:27:35.740Z,96410.56
2023-06-07T15:31:05.641Z,96411.82
2023-06-07T15:35:13.726Z,96409.36
2023-06-07T15:38:38.863Z,96414.47
2023-06-07T15:42:07.766Z,96415.45
2023-06-07T15:45:24.643Z,96418.52
2023-06-07T15:48:18.677Z,96419.08
2023-06-07T15:51:15.625Z,96421.95
2023-06-07T15:54:29.881Z,96429.74
2023-06-07T15:58:04.685Z,96420.55
2023-06-07T16:01:13.692Z,96417.54
2023-06-07T16:04:35.622Z,96422.50
2023-06-07T16:08:01.926Z,96429.85
2023-06-07T16:11:29.764Z,96435.83
2023-06-07T16:14:56.562Z,96430.67
2023-06-07T16:18:16.662Z,96428.84
2023-06-07T16:21:32.700Z,96431.32
2023-06-07T16:24:54.610Z,96431.76
2023-06-07T16:31:51.625Z,96432.98
2023-06-07T16:34:45.628Z,96428.66
2023-06-07T16:37:39.540Z,96426.91
2023-06-07T16:40:07.469Z,96425.10
2023-06-07T16:42:34.575Z,96428.51
2023-06-07T16:45:03.014Z,96431.31
2023-06-07T16:47:30.158Z,96430.86
2023-06-07T16:49:56.797Z,96433.05
2023-06-07T16:52:23.705Z,96434.09
2023-06-07T16:54:50.569Z,96432.44
2023-06-07T16:57:17.092Z,96435.17
2023-06-07T16:59:43.786Z,96437.63
2023-06-07T17:02:10.686Z,96440.48
2023-06-07T17:04:38.013Z,96440.39
2023-06-07T17:07:05.963Z,96438.02
2023-06-07T17:09:32.573Z,96437.73
2023-06-07T17:12:00.256Z,96439.42
2023-06-07T17:14:27.264Z,96439.42
2023-06-07T17:16:53.904Z,96435.97
2023-06-07T17:19:20.649Z,96431.73
2023-06-07T17:21:47.216Z,96429.66
2023-06-07T17:24:15.592Z,96437.22
2023-06-07T17:26:43.461Z,96438.40
2023-06-07T17:29:27.306Z,96436.23
2023-06-07T17:31:55.375Z,96433.39
2023-06-07T17:34:22.113Z,96433.13
2023-06-07T17:36:48.607Z,96430.86
2023-06-07T17:39:16.100Z,96429.33
2023-06-07T17:41:43.670Z,96433.44
2023-06-07T17:44:10.421Z,96435.70
2023-06-07T17:46:38.216Z,96433.77
2023-06-07T17:49:05.568Z,96429.77
2023-06-07T17:51:33.012Z,96430.61
2023-06-07T17:54:01.293Z,96426.80
2023-06-07T17:56:28.245Z,96424.77
2023-06-07T17:58:56.566Z,96428.59
2023-06-07T18:01:23.281Z,96432.22
2023-06-07T18:03:54.445Z,96428.95
2023-06-07T18:06:21.675Z,96428.56
2023-06-07T18:08:48.283Z,96421.09
2023-06-07T18:11:14.832Z,96421.13
2023-06-07T18:13:41.527Z,96414.74
2023-06-07T18:16:08.459Z,96417.52
2023-06-07T18:18:35.310Z,96417.89
2023-06-07T18:21:01.993Z,96420.63
2023-06-07T18:23:29.198Z,96420.89
2023-06-07T18:26:00.384Z,96423.02
2023-06-07T18:28:27.401Z,96421.80
2023-06-07T18:30:54.046Z,96424.80
2023-06-07T18:33:20.722Z,96426.25
2023-06-07T18:35:47.358Z,96430.44
2023-06-07T18:38:14.210Z,96436.94
2023-06-07T18:40:40.892Z,96439.79
2023-06-07T18:43:11.076Z,96439.39
2023-06-07T18:45:38.687Z,96441.24
2023-06-07T18:48:05.978Z,96441.15
2023-06-07T18:50:32.584Z,96440.75
2023-06-07T18:52:59.492Z,96444.52
2023-06-07T18:55:26.043Z,96446.14
2023-06-07T18:57:52.625Z,96448.77
2023-06-07T19:00:19.813Z,96453.22
2023-06-07T19:02:46.720Z,96453.69
2023-06-07T19:05:13.941Z,96452.95
2023-06-07T19:07:41.014Z,96459.48
2023-06-07T19:10:07.964Z,96465.35
2023-06-07T19:12:34.498Z,96467.16
2023-06-07T19:15:01.002Z,96467.41
2023-06-07T19:17:27.737Z,96466.60
2023-06-07T19:19:57.225Z,96460.84
2023-06-07T19:22:23.870Z,96463.16
2023-06-07T19:24:50.664Z,96466.44
2023-06-07T19:27:17.204Z,96464.14
2023-06-07T19:29:46.585Z,96463.66
2023-06-07T19:32:13.132Z,96461.72
2023-06-07T19:34:39.898Z,96464.05
2023-06-07T19:37:06.679Z,96465.40
2023-06-07T19:39:33.364Z,96464.89
2023-06-07T19:42:04.137Z,96461.98
2023-06-07T19:44:30.701Z,96460.86
2023-06-07T19:47:01.473Z,96463.93
2023-06-07T19:49:28.184Z,96464.02
2023-06-07T19:51:55.162Z,96464.34
2023-06-07T19:54:21.722Z,96464.71
2023-06-07T19:56:48.208Z,96465.60
2023-06-07T19:59:14.849Z,96459.26
2023-06-07T20:01:41.414Z,96459.02
2023-06-07T20:04:10.408Z,96458.29
2023-06-07T20:06:38.329Z,96454.79
2023-06-07T20:09:05.098Z,96458.25
2023-06-07T20:11:32.392Z,96452.23
2023-06-07T20:14:22.636Z,96452.95
2023-06-07T20:17:48.679Z,96457.74
2023-06-07T20:21:00.734Z,96456.04
2023-06-07T20:24:19.651Z,96450.83
2023-06-07T20:27:29.651Z,96455.20
2023-06-07T20:30:42.553Z,96452.80
2023-06-07T20:33:51.652Z,96447.73
2023-06-07T20:36:58.635Z,96450.63
2023-06-07T20:43:42.740Z,96454.83
2023-06-07T20:50:47.996Z,96456.80
2023-06-07T20:54:11.878Z,96448.31
2023-06-07T21:05:07.845Z,96450.10
2023-06-07T21:08:53.060Z,96457.46
2023-06-07T21:19:22.843Z,96445.52
2023-06-07T21:31:13.223Z,96443.86
2023-06-07T21:38:38.705Z,96438.20
2023-06-07T21:49:42.000Z,96431.83
2023-06-07T22:04:17.086Z,96425.45
2023-06-07T22:08:13.741Z,96422.73
2023-06-07T22:11:59.421Z,96420.24
2023-06-07T22:23:14.197Z,96416.62
2023-06-07T22:35:39.701Z,96412.27
2023-06-07T22:39:15.926Z,96411.95
2023-06-07T22:42:23.094Z,96419.26
2023-06-07T22:44:50.022Z,96419.29
2023-06-07T22:47:20.239Z,96419.33
2023-06-07T22:49:49.047Z,96415.71
2023-06-07T22:52:17.045Z,96414.43
2023-06-07T22:54:44.118Z,96416.04
2023-06-07T22:57:11.428Z,96414.10
2023-06-07T22:59:37.942Z,96410.30
2023-06-07T23:02:06.533Z,96404.56
2023-06-07T23:04:37.337Z,96402.45
2023-06-07T23:07:05.244Z,96406.44
2023-06-07T23:09:31.745Z,96399.36
2023-06-07T23:11:59.646Z,96403.64
2023-06-07T23:14:28.220Z,96404.59
2023-06-07T23:16:59.643Z,96400.30
2023-06-07T23:19:27.537Z,96402.16
2023-06-07T23:21:56.424Z,96398.23
2023-06-07T23:24:25.817Z,96392.32
2023-06-07T23:26:55.741Z,96386.44
2023-06-07T23:29:22.394Z,96386.45
2023-06-07T23:31:49.048Z,96383.77
2023-06-07T23:34:15.943Z,96387.79
2023-06-07T23:36:42.549Z,96389.64
2023-06-07T23:39:09.136Z,96387.00
2023-06-07T23:41:39.135Z,96392.86
2023-06-07T23:44:22.819Z,96394.98
2023-06-07T23:46:50.528Z,96394.11
2023-06-07T23:49:17.727Z,96393.70
2023-06-07T23:51:44.352Z,96397.19
2023-06-07T23:54:24.405Z,96402.36
2023-06-07T23:56:51.188Z,96408.33
2023-06-07T23:59:18.274Z,96403.55
